Time;durP1;ratioP1;P1;durP2;ratioP2;P2;SDS_P1;SDS_P2;PMS_P1;PMS_P2;Temp;Humidity;BMP_temperature;BMP_pressure;BME280_temperature;BME280_humidity;BME280_pressure;Samples;Min_cycle;Max_cycle;Signal;HPM_P1;HPM_P2
2023/05/03 00:00:47;;;;;;;7.70;2.80;;;;;;;;;;5038730;28;20141;-77
2023/05/03 00:03:13;;;;;;;8.60;2.90;;;;;;;;;;5037353;28;20029;-77
2023/05/03 00:05:38;;;;;;;8.07;3.10;;;;;;;;;;5037982;28;20352;-77
2023/05/03 00:08:04;;;;;;;9.57;2.40;;;;;;;;;;5037779;28;20025;-77
2023/05/03 00:10:29;;;;;;;10.75;2.60;;;;;;;;;;5038203;28;20025;-77
2023/05/03 00:12:55;;;;;;;6.53;2.90;;;;;;;;;;5038797;28;20024;-77
2023/05/03 00:15:21;;;;;;;6.50;3.08;;;;;;;;;;5039353;28;20057;-77
2023/05/03 00:17:46;;;;;;;12.02;3.42;;;;;;;;;;5038433;28;20030;-77
2023/05/03 00:20:11;;;;;;;11.13;3.05;;;;;;;;;;5038477;28;20457;-77
2023/05/03 00:22:37;;;;;;;7.28;2.80;;;;;;;;;;5037789;28;20093;-77
2023/05/03 00:25:03;;;;;;;6.95;2.80;;;;;;;;;;5038580;28;20022;-78
2023/05/03 00:27:28;;;;;;;8.82;2.90;;;;;;;;;;5038312;28;20180;-77
2023/05/03 00:29:54;;;;;;;11.20;3.20;;;;;;;;;;5038214;28;20484;-77
2023/05/03 00:32:21;;;;;;;5.10;2.78;;;;;;;;;;5038511;28;20025;-77
2023/05/03 00:34:51;;;;;;;8.55;2.70;;;;;;;;;;5038401;28;20033;-77
2023/05/03 00:37:16;;;;;;;10.25;2.90;;;;;;;;;;5038178;28;20026;-77
2023/05/03 00:39:41;;;;;;;12.70;2.90;;;;;;;;;;5036595;28;20085;-77
2023/05/03 00:42:06;;;;;;;13.43;3.13;;;;;;;;;;5036894;28;20033;-77
2023/05/03 00:44:32;;;;;;;8.40;3.00;;;;;;;;;;5035664;28;20125;-77
2023/05/03 00:46:57;;;;;;;7.13;2.85;;;;;;;;;;5035446;28;20310;-77
2023/05/03 00:49:23;;;;;;;6.68;3.00;;;;;;;;;;5036704;28;20035;-76
2023/05/03 00:51:50;;;;;;;9.77;3.33;;;;;;;;;;5036542;28;20560;-77
2023/05/03 00:54:15;;;;;;;8.65;3.00;;;;;;;;;;5037284;28;20104;-76
2023/05/03 00:56:41;;;;;;;8.52;3.13;;;;;;;;;;5035725;28;20053;-77
2023/05/03 00:59:07;;;;;;;9.25;3.25;;;;;;;;;;5037137;28;20051;-77
2023/05/03 01:01:32;;;;;;;7.50;3.47;;;;;;;;;;5037425;28;20029;-77
2023/05/03 01:04:00;;;;;;;5.68;2.80;;;;;;;;;;5036474;28;20024;-76
2023/05/03 01:06:33;;;;;;;8.32;3.40;;;;;;;;;;5036347;28;20022;-77
2023/05/03 01:09:16;;;;;;;8.13;2.92;;;;;;;;;;5036262;28;20049;-76
2023/05/03 01:12:07;;;;;;;7.85;3.30;;;;;;;;;;5036161;28;20040;-76
2023/05/03 01:15:02;;;;;;;8.10;3.50;;;;;;;;;;5035624;28;20539;-76
2023/05/03 01:17:33;;;;;;;8.30;3.30;;;;;;;;;;5035303;28;20025;-77
2023/05/03 01:20:07;;;;;;;7.07;3.55;;;;;;;;;;5036859;28;20029;-77
2023/05/03 01:22:46;;;;;;;7.10;3.30;;;;;;;;;;5033495;28;20033;-77
2023/05/03 01:25:13;;;;;;;7.03;3.17;;;;;;;;;;5033180;28;20033;-77
2023/05/03 01:27:40;;;;;;;6.30;3.17;;;;;;;;;;5033117;28;20044;-76
2023/05/03 01:30:07;;;;;;;10.13;3.33;;;;;;;;;;5033438;28;20037;-77
2023/05/03 01:33:03;;;;;;;5.85;3.15;;;;;;;;;;5032150;28;20160;-76
2023/05/03 01:35:33;;;;;;;9.50;3.20;;;;;;;;;;5033711;28;20400;-76
2023/05/03 01:37:59;;;;;;;5.75;3.17;;;;;;;;;;5033662;28;20101;-76
2023/05/03 01:40:26;;;;;;;6.68;3.13;;;;;;;;;;5033588;28;20043;-76
2023/05/03 01:42:54;;;;;;;7.07;3.10;;;;;;;;;;5032035;28;20476;-76
2023/05/03 01:45:19;;;;;;;7.47;2.83;;;;;;;;;;5033284;28;20121;-76
2023/05/03 01:47:45;;;;;;;6.30;2.53;;;;;;;;;;5033801;28;20026;-76
2023/05/03 01:50:10;;;;;;;8.83;2.70;;;;;;;;;;5033705;28;20056;-77
2023/05/03 01:52:35;;;;;;;4.22;2.45;;;;;;;;;;5032544;28;20267;-77
2023/05/03 01:55:00;;;;;;;6.50;2.97;;;;;;;;;;5033494;28;20017;-76
2023/05/03 01:57:26;;;;;;;6.63;2.50;;;;;;;;;;5033511;28;20018;-76
2023/05/03 01:59:51;;;;;;;4.23;2.30;;;;;;;;;;5033668;28;20029;-76
2023/05/03 02:02:16;;;;;;;7.28;2.65;;;;;;;;;;5033408;28;20263;-76
2023/05/03 02:04:42;;;;;;;5.70;2.33;;;;;;;;;;5032077;28;20112;-76
2023/05/03 02:07:08;;;;;;;5.88;2.60;;;;;;;;;;5031723;28;20417;-76
2023/05/03 02:09:33;;;;;;;6.68;2.67;;;;;;;;;;5032865;28;20040;-77
2023/05/03 02:11:58;;;;;;;8.95;2.72;;;;;;;;;;5034017;28;20030;-76
2023/05/03 02:14:23;;;;;;;3.90;2.00;;;;;;;;;;5034227;28;20041;-77
2023/05/03 02:16:48;;;;;;;6.87;2.27;;;;;;;;;;5033895;28;20076;-77
2023/05/03 02:19:14;;;;;;;5.43;2.67;;;;;;;;;;5034073;28;20259;-76
2023/05/03 02:21:39;;;;;;;7.43;2.33;;;;;;;;;;5034118;28;20308;-77
2023/05/03 02:24:04;;;;;;;6.88;2.13;;;;;;;;;;5032519;28;20120;-76
2023/05/03 02:26:30;;;;;;;5.28;2.22;;;;;;;;;;5034135;28;20052;-77
2023/05/03 02:28:56;;;;;;;6.25;2.20;;;;;;;;;;5032578;28;20022;-77
2023/05/03 02:31:22;;;;;;;5.60;2.10;;;;;;;;;;5033946;28;20029;-77
2023/05/03 02:33:47;;;;;;;7.07;2.30;;;;;;;;;;5034063;28;20033;-77
2023/05/03 02:36:12;;;;;;;2.83;1.73;;;;;;;;;;5033388;28;20029;-77
2023/05/03 02:38:37;;;;;;;2.95;1.80;;;;;;;;;;5033767;28;20266;-77
2023/05/03 02:41:03;;;;;;;5.88;1.98;;;;;;;;;;5034002;28;20021;-77
2023/05/03 02:43:28;;;;;;;5.70;1.98;;;;;;;;;;5033834;28;20077;-77
2023/05/03 02:45:53;;;;;;;4.93;1.87;;;;;;;;;;5033911;28;20091;-75
2023/05/03 02:48:18;;;;;;;4.60;1.80;;;;;;;;;;5032831;28;20311;-77
2023/05/03 02:50:44;;;;;;;3.37;1.83;;;;;;;;;;5033508;28;20420;-77
2023/05/03 02:53:09;;;;;;;5.10;2.00;;;;;;;;;;5034647;28;20258;-75
2023/05/03 02:55:35;;;;;;;3.80;1.80;;;;;;;;;;5034994;28;20308;-77
2023/05/03 02:58:00;;;;;;;3.63;1.85;;;;;;;;;;5035144;28;20025;-78
2023/05/03 03:00:27;;;;;;;7.23;2.00;;;;;;;;;;5036001;28;20107;-83
2023/05/03 03:02:52;;;;;;;6.88;2.38;;;;;;;;;;5037338;28;20258;-79
2023/05/03 03:05:18;;;;;;;5.68;1.90;;;;;;;;;;5040113;28;20025;-79
2023/05/03 03:07:43;;;;;;;7.07;1.70;;;;;;;;;;5039661;28;20079;-79
2023/05/03 03:10:08;;;;;;;6.20;1.77;;;;;;;;;;5040161;28;20033;-79
2023/05/03 03:12:35;;;;;;;5.38;1.98;;;;;;;;;;5040815;28;20034;-79
2023/05/03 03:15:00;;;;;;;3.15;1.65;;;;;;;;;;5038637;28;20459;-78
2023/05/03 03:17:26;;;;;;;5.72;2.10;;;;;;;;;;5038112;28;20049;-78
2023/05/03 03:19:51;;;;;;;12.32;2.10;;;;;;;;;;5036762;28;20029;-80
2023/05/03 03:22:16;;;;;;;6.03;1.87;;;;;;;;;;5037834;28;20022;-78
2023/05/03 03:24:41;;;;;;;5.07;2.00;;;;;;;;;;5036203;28;20361;-78
2023/05/03 03:27:07;;;;;;;2.60;1.63;;;;;;;;;;5036485;28;20087;-79
2023/05/03 03:29:32;;;;;;;5.00;1.90;;;;;;;;;;5038849;28;20499;-79
2023/05/03 03:31:58;;;;;;;6.95;1.83;;;;;;;;;;5040572;28;20017;-79
2023/05/03 03:34:23;;;;;;;3.80;1.90;;;;;;;;;;5039435;28;20021;-78
2023/05/03 03:36:48;;;;;;;4.82;1.80;;;;;;;;;;5037240;28;20239;-78
2023/05/03 03:39:16;;;;;;;3.93;1.80;;;;;;;;;;5039371;28;20036;-79
2023/05/03 03:41:42;;;;;;;5.38;1.88;;;;;;;;;;5038822;28;20809;-78
2023/05/03 03:44:07;;;;;;;3.58;1.83;;;;;;;;;;5037725;28;20057;-79
2023/05/03 03:46:32;;;;;;;8.48;2.25;;;;;;;;;;5034695;28;20037;-78
2023/05/03 03:48:58;;;;;;;6.43;2.35;;;;;;;;;;5037852;28;20474;-76
2023/05/03 03:51:23;;;;;;;4.53;2.00;;;;;;;;;;5038647;28;20035;-78
2023/05/03 03:53:48;;;;;;;5.60;2.20;;;;;;;;;;5037141;28;20029;-78
2023/05/03 03:56:14;;;;;;;7.63;2.20;;;;;;;;;;5037501;28;20033;-79
2023/05/03 03:58:39;;;;;;;6.55;2.22;;;;;;;;;;5036262;28;20638;-78
2023/05/03 04:01:05;;;;;;;5.18;2.08;;;;;;;;;;5036516;28;20499;-76
2023/05/03 04:03:30;;;;;;;5.40;2.45;;;;;;;;;;5035038;28;20037;-77
2023/05/03 04:05:55;;;;;;;8.90;2.42;;;;;;;;;;5034264;28;20025;-77
2023/05/03 04:08:21;;;;;;;5.35;2.10;;;;;;;;;;5035116;28;20539;-77
2023/05/03 04:10:46;;;;;;;4.32;2.05;;;;;;;;;;5033473;28;20455;-77
2023/05/03 04:13:11;;;;;;;5.43;2.10;;;;;;;;;;5034754;28;20021;-77
2023/05/03 04:15:36;;;;;;;4.23;2.07;;;;;;;;;;5032415;28;20335;-77
2023/05/03 04:18:02;;;;;;;6.32;2.20;;;;;;;;;;5034889;28;20334;-77
2023/05/03 04:20:28;;;;;;;8.35;2.53;;;;;;;;;;5035399;28;20048;-77
2023/05/03 04:22:53;;;;;;;4.45;2.40;;;;;;;;;;5033909;28;20151;-77
2023/05/03 04:25:18;;;;;;;6.05;2.28;;;;;;;;;;5032844;28;20039;-77
2023/05/03 04:27:44;;;;;;;4.05;2.35;;;;;;;;;;5034388;28;20052;-77
2023/05/03 04:30:11;;;;;;;6.82;2.75;;;;;;;;;;5033620;28;20488;-78
2023/05/03 04:32:39;;;;;;;4.38;2.30;;;;;;;;;;5034388;28;20131;-78
2023/05/03 04:35:11;;;;;;;5.35;2.65;;;;;;;;;;5035075;28;20110;-78
2023/05/03 04:37:37;;;;;;;7.72;3.08;;;;;;;;;;5035292;28;20017;-78
2023/05/03 04:40:07;;;;;;;4.53;2.20;;;;;;;;;;5034524;28;20082;-78
2023/05/03 04:42:33;;;;;;;5.55;2.50;;;;;;;;;;5033254;28;20033;-78
2023/05/03 04:44:58;;;;;;;4.95;2.45;;;;;;;;;;5034602;28;20026;-78
2023/05/03 04:47:24;;;;;;;4.90;2.80;;;;;;;;;;5032920;28;20095;-77
2023/05/03 04:49:50;;;;;;;6.63;2.40;;;;;;;;;;5034803;28;20671;-77
2023/05/03 04:52:15;;;;;;;6.88;2.40;;;;;;;;;;5035661;28;20047;-80
2023/05/03 04:54:40;;;;;;;6.97;2.20;;;;;;;;;;5035815;28;20531;-78
2023/05/03 04:57:06;;;;;;;7.40;2.47;;;;;;;;;;5034650;28;20792;-80
2023/05/03 04:59:31;;;;;;;11.63;2.80;;;;;;;;;;5034301;28;20064;-77
2023/05/03 05:01:56;;;;;;;7.70;2.97;;;;;;;;;;5033953;28;20061;-78
2023/05/03 05:04:21;;;;;;;5.93;2.27;;;;;;;;;;5033650;28;20298;-76
2023/05/03 05:06:47;;;;;;;8.50;2.45;;;;;;;;;;5032990;28;20321;-77
2023/05/03 05:09:22;;;;;;;4.47;2.57;;;;;;;;;;5034630;28;20033;-76
2023/05/03 05:11:48;;;;;;;5.78;2.45;;;;;;;;;;5033893;28;20316;-75
2023/05/03 05:14:13;;;;;;;7.35;2.28;;;;;;;;;;5033383;28;20033;-75
2023/05/03 05:16:38;;;;;;;2.70;1.70;;;;;;;;;;5033161;28;20017;-76
2023/05/03 05:19:03;;;;;;;5.17;2.40;;;;;;;;;;5033974;28;20112;-76
2023/05/03 05:21:29;;;;;;;8.30;2.53;;;;;;;;;;5032162;28;20302;-76
2023/05/03 05:23:54;;;;;;;7.13;2.40;;;;;;;;;;5033543;28;20286;-75
2023/05/03 05:26:19;;;;;;;4.63;2.23;;;;;;;;;;5033251;28;20074;-77
2023/05/03 05:28:45;;;;;;;5.78;2.22;;;;;;;;;;5033272;28;20338;-76
2023/05/03 05:31:10;;;;;;;4.40;2.33;;;;;;;;;;5034239;28;20040;-80
2023/05/03 05:33:35;;;;;;;3.67;1.73;;;;;;;;;;5032436;28;20025;-76
2023/05/03 05:36:00;;;;;;;7.57;2.40;;;;;;;;;;5031753;28;20435;-76
2023/05/03 05:38:26;;;;;;;5.00;2.00;;;;;;;;;;5033054;28;20677;-76
2023/05/03 05:40:52;;;;;;;7.88;2.03;;;;;;;;;;5031456;28;20025;-77
2023/05/03 05:43:17;;;;;;;7.13;2.05;;;;;;;;;;5031473;28;20021;-77
2023/05/03 05:45:42;;;;;;;6.07;2.72;;;;;;;;;;5033358;28;20025;-77
2023/05/03 05:48:08;;;;;;;3.88;1.65;;;;;;;;;;5033444;28;20033;-77
2023/05/03 05:50:33;;;;;;;4.65;1.73;;;;;;;;;;5035176;28;20028;-78
2023/05/03 05:52:58;;;;;;;5.47;2.10;;;;;;;;;;5033456;28;20025;-77
2023/05/03 05:55:23;;;;;;;4.17;1.70;;;;;;;;;;5032947;28;20309;-77
2023/05/03 05:57:49;;;;;;;6.10;1.75;;;;;;;;;;5032999;28;20247;-77
2023/05/03 06:00:16;;;;;;;3.53;1.83;;;;;;;;;;5032738;28;20057;-78
2023/05/03 06:02:41;;;;;;;3.30;1.73;;;;;;;;;;5033753;28;20110;-78
2023/05/03 06:05:07;;;;;;;2.15;1.50;;;;;;;;;;5033122;28;20476;-77
2023/05/03 06:07:32;;;;;;;6.50;1.70;;;;;;;;;;5031428;28;20025;-77
2023/05/03 06:09:57;;;;;;;4.10;1.55;;;;;;;;;;5032815;28;20504;-77
2023/05/03 06:12:23;;;;;;;4.68;1.85;;;;;;;;;;5032823;28;20102;-77
2023/05/03 06:14:48;;;;;;;3.90;1.70;;;;;;;;;;5033182;28;20057;-77
2023/05/03 06:17:13;;;;;;;5.47;1.77;;;;;;;;;;5033733;28;20630;-77
2023/05/03 06:19:39;;;;;;;7.15;1.77;;;;;;;;;;5034165;28;20697;-78
2023/05/03 06:22:04;;;;;;;4.82;2.13;;;;;;;;;;5034327;28;20030;-78
2023/05/03 06:24:31;;;;;;;6.00;2.00;;;;;;;;;;5033275;28;20036;-78
2023/05/03 06:26:57;;;;;;;4.55;1.65;;;;;;;;;;5034186;28;20378;-78
2023/05/03 06:29:23;;;;;;;5.22;1.60;;;;;;;;;;5033382;28;20021;-78
2023/05/03 06:31:48;;;;;;;6.78;2.10;;;;;;;;;;5034761;28;20024;-77
2023/05/03 06:34:16;;;;;;;4.05;1.67;;;;;;;;;;5032454;28;20087;-79
2023/05/03 06:36:41;;;;;;;5.88;1.52;;;;;;;;;;5035196;28;20037;-81
2023/05/03 06:39:08;;;;;;;4.83;1.67;;;;;;;;;;5037189;28;20022;-78
2023/05/03 06:41:33;;;;;;;6.10;1.70;;;;;;;;;;5037489;28;20281;-78
2023/05/03 06:43:58;;;;;;;5.72;1.73;;;;;;;;;;5037380;28;20524;-78
2023/05/03 06:46:26;;;;;;;4.85;1.98;;;;;;;;;;5038784;28;20022;-76
2023/05/03 06:48:54;;;;;;;6.78;1.70;;;;;;;;;;5037129;28;20061;-78
2023/05/03 06:51:26;;;;;;;8.20;1.70;;;;;;;;;;5038158;28;20025;-80
2023/05/03 06:53:51;;;;;;;8.38;1.83;;;;;;;;;;5038005;28;20025;-77
2023/05/03 06:56:16;;;;;;;4.37;1.73;;;;;;;;;;5035411;28;20377;-77
2023/05/03 06:58:41;;;;;;;4.00;1.88;;;;;;;;;;5036230;28;20250;-77
2023/05/03 07:01:07;;;;;;;5.60;1.80;;;;;;;;;;5036291;28;20029;-77
2023/05/03 07:03:32;;;;;;;6.67;1.80;;;;;;;;;;5036289;28;20270;-77
2023/05/03 07:05:58;;;;;;;4.47;1.95;;;;;;;;;;5037286;28;20312;-78
2023/05/03 07:08:23;;;;;;;4.97;1.70;;;;;;;;;;5037867;28;20033;-78
2023/05/03 07:10:49;;;;;;;4.57;1.98;;;;;;;;;;5038435;28;20029;-78
2023/05/03 07:13:14;;;;;;;4.60;1.58;;;;;;;;;;5038162;28;20021;-78
2023/05/03 07:15:39;;;;;;;3.13;1.83;;;;;;;;;;5036537;28;20370;-78
2023/05/03 07:18:05;;;;;;;4.65;1.60;;;;;;;;;;5035783;28;20076;-78
2023/05/03 07:20:30;;;;;;;3.50;1.65;;;;;;;;;;5036950;28;20051;-77
2023/05/03 07:22:56;;;;;;;6.00;2.08;;;;;;;;;;5035669;28;20477;-77
2023/05/03 07:25:21;;;;;;;6.57;1.60;;;;;;;;;;5035785;28;20030;-78
2023/05/03 07:27:46;;;;;;;9.20;2.13;;;;;;;;;;5036287;28;20487;-77
2023/05/03 07:30:12;;;;;;;3.83;1.80;;;;;;;;;;5036274;28;20742;-77
2023/05/03 07:32:37;;;;;;;5.22;2.10;;;;;;;;;;5037535;28;20052;-78
2023/05/03 07:35:03;;;;;;;3.40;1.60;;;;;;;;;;5037359;28;20021;-77
2023/05/03 07:37:28;;;;;;;5.65;1.48;;;;;;;;;;5036433;28;20013;-76
2023/05/03 07:39:54;;;;;;;4.50;1.83;;;;;;;;;;5037335;28;20032;-76
2023/05/03 07:42:19;;;;;;;3.95;1.70;;;;;;;;;;5036700;28;20263;-77
2023/05/03 07:44:45;;;;;;;6.85;1.83;;;;;;;;;;5035661;28;20025;-76
2023/05/03 07:47:10;;;;;;;5.32;2.63;;;;;;;;;;5035518;28;20057;-77
2023/05/03 07:49:38;;;;;;;3.33;1.70;;;;;;;;;;5033817;28;20473;-77
2023/05/03 07:52:04;;;;;;;4.22;1.77;;;;;;;;;;5035476;28;20029;-77
2023/05/03 07:54:29;;;;;;;3.90;1.90;;;;;;;;;;5035602;28;20025;-77
2023/05/03 07:56:54;;;;;;;3.38;1.67;;;;;;;;;;5035294;28;20028;-77
2023/05/03 07:59:20;;;;;;;4.73;1.50;;;;;;;;;;5035611;28;20036;-77
2023/05/03 08:01:45;;;;;;;3.57;1.57;;;;;;;;;;5035804;28;20254;-77
2023/05/03 08:04:10;;;;;;;3.03;1.47;;;;;;;;;;5035541;28;20301;-78
2023/05/03 08:06:37;;;;;;;4.78;2.20;;;;;;;;;;5035192;28;20267;-78
2023/05/03 08:09:03;;;;;;;6.68;2.30;;;;;;;;;;5033748;28;20030;-77
2023/05/03 08:11:29;;;;;;;4.95;1.60;;;;;;;;;;5035394;28;20024;-77
2023/05/03 08:13:54;;;;;;;7.15;1.75;;;;;;;;;;5034874;28;20033;-78
2023/05/03 08:16:20;;;;;;;4.13;1.73;;;;;;;;;;5034888;28;20029;-77
2023/05/03 08:18:45;;;;;;;3.25;1.73;;;;;;;;;;5035505;28;20017;-77
2023/05/03 08:21:12;;;;;;;3.50;1.63;;;;;;;;;;5034650;28;20025;-77
2023/05/03 08:23:38;;;;;;;4.13;1.73;;;;;;;;;;5035085;28;20064;-77
2023/05/03 08:26:06;;;;;;;6.40;2.07;;;;;;;;;;5035230;28;20034;-77
2023/05/03 08:28:31;;;;;;;4.70;1.80;;;;;;;;;;5035255;28;20285;-77
2023/05/03 08:30:57;;;;;;;4.50;1.50;;;;;;;;;;5034951;28;20396;-78
2023/05/03 08:33:22;;;;;;;4.72;1.27;;;;;;;;;;5035416;28;20442;-77
2023/05/03 08:35:47;;;;;;;4.18;1.88;;;;;;;;;;5035252;28;20365;-77
2023/05/03 08:38:12;;;;;;;6.87;2.10;;;;;;;;;;5035134;28;20026;-76
2023/05/03 08:40:38;;;;;;;5.60;1.80;;;;;;;;;;5035281;28;20259;-78
2023/05/03 08:43:08;;;;;;;3.88;1.95;;;;;;;;;;5034724;28;20021;-76
2023/05/03 08:45:34;;;;;;;4.20;1.88;;;;;;;;;;5034442;28;20063;-76
2023/05/03 08:48:01;;;;;;;7.03;2.55;;;;;;;;;;5034519;28;20073;-77
2023/05/03 08:50:27;;;;;;;8.40;1.80;;;;;;;;;;5034323;28;20026;-77
2023/05/03 08:52:52;;;;;;;9.77;1.92;;;;;;;;;;5034914;28;20032;-78
2023/05/03 08:55:17;;;;;;;5.70;1.90;;;;;;;;;;5034754;28;20029;-77
2023/05/03 08:57:43;;;;;;;5.75;1.98;;;;;;;;;;5034991;28;20178;-77
2023/05/03 09:00:11;;;;;;;4.05;1.90;;;;;;;;;;5033883;28;20416;-78
2023/05/03 09:02:40;;;;;;;5.55;1.70;;;;;;;;;;5033485;28;20044;-78
2023/05/03 09:05:15;;;;;;;6.72;1.90;;;;;;;;;;5034169;28;20476;-78
2023/05/03 09:08:00;;;;;;;3.53;1.73;;;;;;;;;;5035006;28;20024;-78
2023/05/03 09:10:25;;;;;;;4.38;1.83;;;;;;;;;;5034065;28;20075;-78
2023/05/03 09:12:57;;;;;;;2.88;1.70;;;;;;;;;;5034061;28;20025;-79
2023/05/03 09:15:22;;;;;;;4.47;1.80;;;;;;;;;;5035348;28;20104;-77
2023/05/03 09:18:18;;;;;;;7.22;1.98;;;;;;;;;;5034950;28;20079;-78
2023/05/03 09:20:50;;;;;;;2.67;1.60;;;;;;;;;;5030449;28;20044;-78
2023/05/03 09:23:30;;;;;;;3.75;1.70;;;;;;;;;;5034265;28;20021;-78
2023/05/03 09:25:56;;;;;;;8.55;1.70;;;;;;;;;;5034694;28;20033;-77
2023/05/03 09:28:22;;;;;;;4.22;1.90;;;;;;;;;;5034938;28;20075;-77
2023/05/03 09:30:49;;;;;;;4.38;1.80;;;;;;;;;;5034446;28;20022;-77
2023/05/03 09:33:19;;;;;;;3.33;1.52;;;;;;;;;;5034546;28;20071;-77
2023/05/03 09:35:59;;;;;;;6.65;2.00;;;;;;;;;;5032713;28;20026;-78
2023/05/03 09:38:29;;;;;;;4.40;1.73;;;;;;;;;;5033940;28;20021;-77
2023/05/03 09:40:55;;;;;;;3.13;1.50;;;;;;;;;;5033691;28;20108;-77
2023/05/03 09:43:21;;;;;;;2.92;1.60;;;;;;;;;;5033053;28;20021;-77
2023/05/03 09:45:46;;;;;;;6.82;1.98;;;;;;;;;;5034211;28;20025;-77
2023/05/03 09:48:12;;;;;;;4.35;1.40;;;;;;;;;;5033660;28;20032;-77
2023/05/03 09:50:38;;;;;;;8.05;1.92;;;;;;;;;;5032483;28;20017;-77
2023/05/03 09:53:05;;;;;;;4.32;1.70;;;;;;;;;;5031961;28;20040;-77
2023/05/03 09:55:32;;;;;;;6.38;2.05;;;;;;;;;;5033053;28;20083;-77
2023/05/03 09:57:58;;;;;;;7.68;1.83;;;;;;;;;;5034650;28;20087;-77
2023/05/03 10:00:24;;;;;;;4.43;1.88;;;;;;;;;;5034203;28;20091;-77
2023/05/03 10:02:53;;;;;;;4.95;2.00;;;;;;;;;;5034530;28;20028;-77
2023/05/03 10:05:20;;;;;;;6.47;1.90;;;;;;;;;;5034625;28;20022;-79
2023/05/03 10:07:49;;;;;;;6.05;2.20;;;;;;;;;;5033887;28;20101;-77
2023/05/03 10:10:14;;;;;;;7.90;1.90;;;;;;;;;;5034193;28;20041;-77
2023/05/03 10:12:40;;;;;;;4.82;1.98;;;;;;;;;;5034273;28;20048;-77
2023/05/03 10:15:09;;;;;;;4.60;1.95;;;;;;;;;;5038211;28;20029;-78
2023/05/03 10:17:37;;;;;;;3.40;2.03;;;;;;;;;;5038421;28;20021;-77
2023/05/03 10:20:32;;;;;;;3.47;1.80;;;;;;;;;;5038238;28;20192;-77
2023/05/03 10:23:03;;;;;;;;;;;;;;;;;;5035112;28;20029;-77
2023/05/03 10:25:29;;;;;;;3.17;1.70;;;;;;;;;;5035852;28;19967;-77
2023/05/03 10:28:01;;;;;;;7.97;1.80;;;;;;;;;;5036194;28;20454;-77
2023/05/03 10:30:34;;;;;;;7.68;1.90;;;;;;;;;;5038355;28;20484;-76
2023/05/03 10:33:19;;;;;;;5.10;1.95;;;;;;;;;;5036594;28;20025;-77
2023/05/03 10:35:53;;;;;;;5.95;1.88;;;;;;;;;;5037879;28;20032;-76
2023/05/03 10:38:23;;;;;;;4.28;1.83;;;;;;;;;;5037686;28;20029;-77
2023/05/03 10:40:48;;;;;;;5.32;1.80;;;;;;;;;;5037923;28;20092;-76
2023/05/03 10:43:29;;;;;;;3.03;1.50;;;;;;;;;;5037715;28;20029;-77
2023/05/03 10:45:56;;;;;;;4.38;1.60;;;;;;;;;;5037761;28;20033;-77
2023/05/03 10:48:21;;;;;;;2.35;1.55;;;;;;;;;;5036356;28;20022;-77
2023/05/03 10:50:47;;;;;;;5.93;1.83;;;;;;;;;;5037585;28;20028;-77
2023/05/03 10:53:39;;;;;;;5.43;1.85;;;;;;;;;;5036694;28;20021;-77
2023/05/03 10:56:11;;;;;;;2.88;1.70;;;;;;;;;;5038026;28;20029;-76
2023/05/03 10:58:47;;;;;;;4.05;1.88;;;;;;;;;;5037443;28;20036;-77
2023/05/03 11:01:15;;;;;;;2.53;1.48;;;;;;;;;;5038100;28;20026;-77
2023/05/03 11:03:59;;;;;;;4.88;1.65;;;;;;;;;;5036899;28;20025;-76
2023/05/03 11:06:35;;;;;;;3.70;1.40;;;;;;;;;;5038495;28;20068;-77
2023/05/03 11:09:03;;;;;;;4.75;1.65;;;;;;;;;;5037145;28;20026;-77
2023/05/03 11:11:30;;;;;;;3.83;1.50;;;;;;;;;;5036249;28;20108;-77
2023/05/03 11:13:55;;;;;;;4.60;1.50;;;;;;;;;;5037678;28;20041;-77
2023/05/03 11:16:21;;;;;;;2.83;1.60;;;;;;;;;;5037287;28;20025;-77
2023/05/03 11:18:47;;;;;;;3.83;1.60;;;;;;;;;;5036812;28;20388;-77
2023/05/03 11:21:13;;;;;;;5.18;1.58;;;;;;;;;;5035600;28;20032;-77
2023/05/03 11:23:40;;;;;;;4.85;1.70;;;;;;;;;;5036750;28;20033;-77
2023/05/03 11:26:05;;;;;;;5.78;1.48;;;;;;;;;;5037256;28;20026;-77
2023/05/03 11:28:31;;;;;;;5.78;1.52;;;;;;;;;;5036905;28;20025;-77
2023/05/03 11:30:56;;;;;;;5.10;1.90;;;;;;;;;;5035780;28;20018;-77
2023/05/03 11:33:21;;;;;;;6.10;1.60;;;;;;;;;;5036057;28;20033;-77
2023/05/03 11:35:46;;;;;;;4.00;1.75;;;;;;;;;;5037322;28;20029;-77
2023/05/03 11:38:12;;;;;;;3.08;1.63;;;;;;;;;;5037426;28;20047;-77
2023/05/03 11:40:38;;;;;;;3.55;1.80;;;;;;;;;;5035567;28;20028;-77
2023/05/03 11:43:04;;;;;;;4.07;1.60;;;;;;;;;;5036530;28;20025;-76
2023/05/03 11:45:42;;;;;;;3.67;1.70;;;;;;;;;;5036825;28;20104;-77
2023/05/03 11:48:08;;;;;;;5.00;1.70;;;;;;;;;;5035294;28;20021;-77
2023/05/03 11:50:54;;;;;;;5.63;1.55;;;;;;;;;;5036213;28;20029;-77
2023/05/03 11:53:23;;;;;;;7.95;1.75;;;;;;;;;;5034951;28;20512;-77
2023/05/03 11:55:52;;;;;;;3.20;1.48;;;;;;;;;;5034963;28;20071;-77
2023/05/03 11:58:23;;;;;;;4.45;1.35;;;;;;;;;;5036247;28;20428;-77
2023/05/03 12:00:50;;;;;;;7.53;1.67;;;;;;;;;;5036759;28;20033;-77
2023/05/03 12:03:27;;;;;;;5.53;1.70;;;;;;;;;;5036427;28;20029;-76
2023/05/03 12:05:52;;;;;;;4.90;1.70;;;;;;;;;;5038305;28;20033;-77
2023/05/03 12:08:20;;;;;;;5.75;1.67;;;;;;;;;;5037041;28;20057;-76
2023/05/03 12:10:46;;;;;;;3.63;1.50;;;;;;;;;;5037485;28;20025;-77
2023/05/03 12:13:11;;;;;;;4.82;1.45;;;;;;;;;;5037412;28;20511;-76
2023/05/03 12:15:38;;;;;;;4.85;1.60;;;;;;;;;;5037108;28;20057;-76
2023/05/03 12:18:08;;;;;;;5.15;1.75;;;;;;;;;;5037992;28;20021;-77
2023/05/03 12:20:35;;;;;;;3.45;1.50;;;;;;;;;;5036700;28;20033;-77
2023/05/03 12:23:02;;;;;;;4.38;1.55;;;;;;;;;;5037208;28;20026;-77
2023/05/03 12:25:28;;;;;;;3.97;1.67;;;;;;;;;;5035513;28;20093;-77
2023/05/03 12:27:56;;;;;;;1.85;1.20;;;;;;;;;;5036026;28;20033;-77
2023/05/03 12:30:21;;;;;;;5.03;1.65;;;;;;;;;;5034802;28;20446;-77
2023/05/03 12:32:47;;;;;;;3.60;1.52;;;;;;;;;;5036797;28;20025;-77
2023/05/03 12:35:12;;;;;;;4.00;1.80;;;;;;;;;;5036539;28;20033;-77
2023/05/03 12:37:37;;;;;;;5.82;1.75;;;;;;;;;;5035602;28;20357;-79
2023/05/03 12:40:04;;;;;;;7.35;1.80;;;;;;;;;;5036895;28;20075;-77
2023/05/03 12:42:29;;;;;;;2.60;1.70;;;;;;;;;;5034715;28;20029;-81
2023/05/03 12:44:58;;;;;;;7.90;2.00;;;;;;;;;;5033148;28;20029;-78
2023/05/03 12:47:25;;;;;;;3.63;1.40;;;;;;;;;;5034567;28;20042;-78
2023/05/03 12:49:50;;;;;;;8.68;1.80;;;;;;;;;;5035315;28;20029;-78
2023/05/03 12:52:16;;;;;;;5.30;1.60;;;;;;;;;;5038046;28;20032;-79
2023/05/03 12:54:41;;;;;;;5.10;1.60;;;;;;;;;;5035498;28;20251;-78
2023/05/03 12:57:09;;;;;;;2.75;1.50;;;;;;;;;;5036723;28;20018;-78
2023/05/03 12:59:36;;;;;;;2.65;1.42;;;;;;;;;;5037627;28;20400;-78
2023/05/03 13:02:01;;;;;;;5.32;1.70;;;;;;;;;;5037465;28;20029;-78
2023/05/03 13:04:26;;;;;;;4.07;1.52;;;;;;;;;;5036983;28;20072;-78
2023/05/03 13:06:53;;;;;;;4.13;1.63;;;;;;;;;;5038220;28;20021;-78
2023/05/03 13:09:18;;;;;;;5.75;1.92;;;;;;;;;;5038034;28;20025;-79
2023/05/03 13:11:45;;;;;;;4.50;1.33;;;;;;;;;;5037507;28;20446;-79
2023/05/03 13:14:13;;;;;;;5.55;1.70;;;;;;;;;;5036516;28;20266;-76
2023/05/03 13:16:38;;;;;;;2.65;1.50;;;;;;;;;;5037788;28;20110;-79
2023/05/03 13:19:04;;;;;;;3.47;1.70;;;;;;;;;;5036735;28;20491;-78
2023/05/03 13:21:30;;;;;;;3.65;1.60;;;;;;;;;;5037378;28;20025;-78
2023/05/03 13:23:56;;;;;;;4.45;1.50;;;;;;;;;;5035695;28;20540;-77
2023/05/03 13:26:21;;;;;;;5.00;1.90;;;;;;;;;;5034258;28;20080;-76
2023/05/03 13:28:46;;;;;;;4.65;1.40;;;;;;;;;;5033112;28;20052;-77
2023/05/03 13:31:11;;;;;;;5.77;1.60;;;;;;;;;;5034339;28;20476;-77
2023/05/03 13:33:37;;;;;;;5.47;1.80;;;;;;;;;;5034584;28;20979;-75
2023/05/03 13:36:03;;;;;;;6.07;1.50;;;;;;;;;;5034393;28;20734;-77
2023/05/03 13:38:28;;;;;;;8.73;1.85;;;;;;;;;;5036905;28;20025;-77
2023/05/03 13:40:54;;;;;;;8.75;1.70;;;;;;;;;;5037073;28;20099;-77
2023/05/03 13:43:19;;;;;;;4.20;1.60;;;;;;;;;;5035433;28;20033;-77
2023/05/03 13:45:44;;;;;;;4.63;1.57;;;;;;;;;;5035591;28;20040;-78
2023/05/03 13:48:09;;;;;;;6.28;1.50;;;;;;;;;;5034544;28;20366;-77
2023/05/03 13:50:35;;;;;;;5.47;1.60;;;;;;;;;;5035335;28;20033;-77
2023/05/03 13:53:00;;;;;;;4.47;1.75;;;;;;;;;;5034073;28;20259;-77
2023/05/03 13:55:25;;;;;;;3.10;1.30;;;;;;;;;;5035327;28;20022;-77
2023/05/03 13:57:51;;;;;;;3.45;1.40;;;;;;;;;;5036014;28;20365;-78
2023/05/03 14:00:17;;;;;;;5.05;1.90;;;;;;;;;;5036393;28;20064;-77
2023/05/03 14:02:42;;;;;;;4.72;1.40;;;;;;;;;;5033384;28;20109;-77
2023/05/03 14:05:09;;;;;;;7.90;1.57;;;;;;;;;;5033391;28;20064;-76
2023/05/03 14:07:34;;;;;;;2.60;1.40;;;;;;;;;;5032306;28;20757;-79
2023/05/03 14:10:00;;;;;;;3.75;1.60;;;;;;;;;;5034231;28;20018;-77
2023/05/03 14:12:26;;;;;;;2.80;1.40;;;;;;;;;;5032181;28;20104;-75
2023/05/03 14:14:52;;;;;;;3.75;1.50;;;;;;;;;;5033406;28;20472;-77
2023/05/03 14:17:18;;;;;;;3.08;1.75;;;;;;;;;;5035207;28;20425;-77
2023/05/03 14:19:43;;;;;;;2.83;1.27;;;;;;;;;;5032611;28;20048;-77
2023/05/03 14:22:08;;;;;;;4.45;1.50;;;;;;;;;;5034310;28;20030;-77
2023/05/03 14:24:35;;;;;;;4.60;1.42;;;;;;;;;;5034421;28;20037;-76
2023/05/03 14:27:00;;;;;;;5.60;1.50;;;;;;;;;;5034186;28;20063;-76
2023/05/03 14:29:26;;;;;;;11.15;1.73;;;;;;;;;;5032819;28;20388;-77
2023/05/03 14:31:51;;;;;;;5.38;1.50;;;;;;;;;;5034419;28;20082;-77
2023/05/03 14:34:16;;;;;;;5.03;1.53;;;;;;;;;;5033653;28;20481;-76
2023/05/03 14:36:42;;;;;;;7.88;1.80;;;;;;;;;;5033753;28;20756;-77
2023/05/03 14:39:08;;;;;;;5.07;1.60;;;;;;;;;;5033029;28;20131;-79
2023/05/03 14:41:33;;;;;;;5.03;1.73;;;;;;;;;;5034942;28;20025;-77